createdAt,value
2018-01-21T00:05:10.638Z,92.72
2018-01-21T00:11:14.091Z,93.03
2018-01-21T00:17:17.542Z,92.98
2018-01-21T00:23:21.188Z,92.82
2018-01-21T00:29:24.672Z,93.09
2018-01-21T00:35:28.957Z,93.01
2018-01-21T00:41:33.372Z,93.02
2018-01-21T00:47:36.870Z,93.23
2018-01-21T00:53:40.340Z,93.24
2018-01-21T00:59:44.679Z,93.07
2018-01-21T01:05:48.250Z,92.97
2018-01-21T01:11:51.735Z,93.05
2018-01-21T01:17:55.656Z,93.34
2018-01-21T01:23:59.128Z,93.49
2018-01-21T01:30:03.390Z,93.73
2018-01-21T01:36:07.124Z,93.66
2018-01-21T01:42:10.593Z,93.74
2018-01-21T01:48:14.049Z,93.90
2018-01-21T01:54:18.251Z,93.93
2018-01-21T02:00:21.671Z,93.92
2018-01-21T02:06:26.094Z,93.95
2018-01-21T02:12:29.549Z,94.12
2018-01-21T02:18:33.001Z,94.39
2018-01-21T02:24:39.585Z,94.32
2018-01-21T02:30:43.013Z,94.33
2018-01-21T02:36:46.504Z,94.46
2018-01-21T02:42:49.972Z,94.77
2018-01-21T02:48:53.400Z,94.70
2018-01-21T02:54:57.236Z,94.70
2018-01-21T03:01:00.681Z,94.60
2018-01-21T03:07:04.142Z,94.60
2018-01-21T03:13:07.608Z,94.70
2018-01-21T03:19:11.223Z,94.67
2018-01-21T03:25:14.682Z,94.46
2018-01-21T03:31:18.126Z,94.55
2018-01-21T03:37:21.585Z,94.39
2018-01-21T03:43:25.083Z,94.26
2018-01-21T03:49:29.442Z,94.03
2018-01-21T03:55:32.983Z,93.89
2018-01-21T04:01:36.490Z,93.79
2018-01-21T04:07:40.014Z,93.56
2018-01-21T04:13:43.558Z,93.55
2018-01-21T04:19:47.025Z,93.65
2018-01-21T04:25:50.534Z,93.62
2018-01-21T04:31:54.199Z,93.74
2018-01-21T04:37:58.256Z,93.79
2018-01-21T04:44:01.878Z,93.69
2018-01-21T04:50:06.102Z,93.31
2018-01-21T04:56:09.567Z,93.07
2018-01-21T05:02:13.103Z,93.00
2018-01-21T05:08:16.565Z,92.89
2018-01-21T05:14:20.040Z,92.81
2018-01-21T05:20:23.540Z,93.03
2018-01-21T05:26:27.542Z,93.20
2018-01-21T05:32:31.101Z,93.07
2018-01-21T05:38:34.710Z,92.87
2018-01-21T05:44:38.945Z,93.03
2018-01-21T05:50:42.407Z,93.25
2018-01-21T05:56:45.982Z,93.17
2018-01-21T06:02:50.298Z,93.34
2018-01-21T06:08:53.828Z,93.49
2018-01-21T06:14:57.593Z,93.63
2018-01-21T06:21:01.066Z,93.41
2018-01-21T06:27:04.498Z,93.30
2018-01-21T06:33:08.107Z,93.30
2018-01-21T06:39:11.547Z,93.18
2018-01-21T06:45:14.973Z,92.93
2018-01-21T06:51:18.417Z,93.02
2018-01-21T06:57:21.853Z,93.07
2018-01-21T07:03:25.422Z,93.12
2018-01-21T07:09:29.025Z,93.02
2018-01-21T07:15:32.456Z,92.75
2018-01-21T07:21:35.939Z,92.92
2018-01-21T07:27:40.233Z,92.76
2018-01-21T07:33:44.552Z,92.90
2018-01-21T07:39:48.170Z,92.57
2018-01-21T07:45:51.632Z,92.39
2018-01-21T07:51:55.437Z,92.27
2018-01-21T07:57:59.105Z,92.00
2018-01-21T08:04:02.691Z,91.91
2018-01-21T08:10:06.944Z,91.56
2018-01-21T08:16:10.373Z,91.27
2018-01-21T08:22:13.809Z,91.28
2018-01-21T08:28:17.240Z,90.97
2018-01-21T08:34:26.116Z,90.93
2018-01-21T08:40:35.185Z,90.75
2018-01-21T08:46:39.360Z,90.54
2018-01-21T08:52:43.566Z,90.08
2018-01-21T08:58:47.040Z,90.09
2018-01-21T09:04:50.542Z,90.50
2018-01-21T09:10:53.991Z,90.20
2018-01-21T09:16:57.431Z,90.21
2018-01-21T09:23:01.645Z,89.86
2018-01-21T09:29:05.177Z,89.42
2018-01-21T09:35:08.620Z,89.78
2018-01-21T09:41:12.847Z,89.50
2018-01-21T09:47:16.318Z,88.99
2018-01-21T09:53:19.834Z,89.42
2018-01-21T09:59:23.300Z,89.88
2018-01-21T10:05:26.844Z,90.07
2018-01-21T10:11:30.989Z,90.48
2018-01-21T10:17:34.443Z,90.39
2018-01-21T10:23:37.877Z,89.60
2018-01-21T10:29:42.100Z,88.97
2018-01-21T10:35:45.550Z,88.30
2018-01-21T10:41:48.993Z,89.06
2018-01-21T10:47:52.485Z,89.15
2018-01-21T10:53:55.941Z,89.41
2018-01-21T11:00:00.234Z,89.09
2018-01-21T11:06:04.459Z,89.29
2018-01-21T11:12:07.900Z,89.25
2018-01-21T11:18:11.344Z,89.75
2018-01-21T11:24:14.829Z,89.07
2018-01-21T11:30:18.338Z,88.09
2018-01-21T11:36:21.784Z,87.80
2018-01-21T11:42:25.499Z,86.59
2018-01-21T11:48:28.963Z,86.01
2018-01-21T11:54:33.306Z,85.25
2018-01-21T12:00:36.873Z,84.08
2018-01-21T12:06:40.544Z,83.15
2018-01-21T12:12:43.995Z,80.84
2018-01-21T12:18:47.422Z,79.31
2018-01-21T12:24:50.854Z,75.88
2018-01-21T12:30:54.696Z,74.56
2018-01-21T12:36:58.165Z,74.35
2018-01-21T12:43:01.597Z,76.06
2018-01-21T12:49:05.856Z,77.31
2018-01-21T12:55:09.543Z,79.11
2018-01-21T13:01:13.598Z,79.06
2018-01-21T13:07:17.073Z,81.86
2018-01-21T13:13:20.514Z,81.03
2018-01-21T13:19:23.965Z,81.60
2018-01-21T13:25:27.982Z,82.82
2018-01-21T13:31:31.417Z,82.90
2018-01-21T13:37:34.849Z,84.29
2018-01-21T13:43:38.495Z,85.31
2018-01-21T13:49:41.986Z,85.65
2018-01-21T13:55:45.437Z,86.11
2018-01-21T14:01:48.919Z,86.35
2018-01-21T14:07:52.351Z,86.54
2018-01-21T14:13:55.814Z,86.63
2018-01-21T14:19:59.389Z,87.05
2018-01-21T14:26:03.053Z,87.22
2018-01-21T14:32:07.274Z,87.79
2018-01-21T14:38:11.513Z,88.80
2018-01-21T14:44:14.942Z,88.61
2018-01-21T14:50:19.215Z,89.14
2018-01-21T14:56:23.844Z,89.50
2018-01-21T15:02:27.567Z,88.17
2018-01-21T15:08:31.022Z,88.72
2018-01-21T15:14:35.345Z,89.36
2018-01-21T15:20:38.860Z,90.11
2018-01-21T15:26:42.293Z,90.36
2018-01-21T15:32:46.598Z,90.78
2018-01-21T15:38:50.040Z,91.15
2018-01-21T15:44:53.504Z,91.16
2018-01-21T15:50:56.997Z,91.45
2018-01-21T15:57:00.479Z,91.69
2018-01-21T16:03:04.965Z,91.77
2018-01-21T16:09:09.156Z,91.74
2018-01-21T16:15:12.594Z,91.99
2018-01-21T16:21:16.040Z,91.97
2018-01-21T16:27:20.257Z,91.40
2018-01-21T16:33:24.004Z,92.33
2018-01-21T16:39:27.674Z,92.61
2018-01-21T16:45:31.416Z,92.27
2018-01-21T16:51:34.915Z,92.38
2018-01-21T16:57:38.345Z,92.00
2018-01-21T17:03:45.244Z,92.14
2018-01-21T17:09:48.940Z,91.87
2018-01-21T17:15:53.734Z,92.61
2018-01-21T17:21:58.689Z,93.21
2018-01-21T17:28:02.263Z,92.99
2018-01-21T17:34:05.817Z,92.37
2018-01-21T17:40:09.256Z,92.37
2018-01-21T17:46:12.870Z,92.20
2018-01-21T17:52:17.118Z,92.50
2018-01-21T17:58:20.640Z,92.63
2018-01-21T18:04:24.349Z,93.09
2018-01-21T18:10:28.618Z,92.88
2018-01-21T18:16:32.134Z,92.58
2018-01-21T18:22:35.627Z,92.89
2018-01-21T18:28:39.168Z,93.15
2018-01-21T18:34:42.687Z,93.58
2018-01-21T18:40:46.130Z,93.73
2018-01-21T18:46:49.726Z,93.48
2018-01-21T18:52:53.865Z,93.31
2018-01-21T18:58:57.295Z,93.08
2018-01-21T19:05:00.831Z,92.58
2018-01-21T19:11:05.058Z,92.11
2018-01-21T19:17:08.507Z,92.17
2018-01-21T19:23:11.946Z,92.11
2018-01-21T19:29:15.406Z,91.81
2018-01-21T19:35:19.126Z,92.12
2018-01-21T19:41:23.356Z,92.00
2018-01-21T19:47:26.809Z,91.72
2018-01-21T19:53:30.289Z,91.87
2018-01-21T19:59:33.778Z,92.04
2018-01-21T20:05:37.242Z,92.00
2018-01-21T20:11:41.746Z,91.68
2018-01-21T20:17:45.242Z,91.32
2018-01-21T20:23:50.080Z,91.12
2018-01-21T20:29:54.361Z,90.78
2018-01-21T20:35:57.790Z,90.69
2018-01-21T20:42:01.228Z,90.38
2018-01-21T20:48:04.763Z,90.63
2018-01-21T20:54:14.449Z,90.76
2018-01-21T21:00:18.708Z,90.69
2018-01-21T21:06:22.656Z,90.52
2018-01-21T21:12:26.155Z,90.52
2018-01-21T21:18:31.202Z,90.65
2018-01-21T21:24:34.993Z,90.14
2018-01-21T21:30:39.241Z,90.14
2018-01-21T21:36:42.680Z,90.57
2018-01-21T21:42:46.130Z,90.83
2018-01-21T21:48:49.931Z,90.88
2018-01-21T21:54:54.141Z,90.25
2018-01-21T22:00:57.576Z,90.58
2018-01-21T22:07:01.108Z,91.01
2018-01-21T22:13:05.407Z,89.21
2018-01-21T22:19:08.843Z,89.65
2018-01-21T22:25:13.089Z,89.91
2018-01-21T22:31:16.696Z,90.14
2018-01-21T22:50:20.865Z,90.33
2018-01-21T22:56:24.553Z,90.48
2018-01-21T23:02:28.290Z,91.07
2018-01-21T23:08:31.762Z,91.00
2018-01-21T23:14:35.299Z,91.03
2018-01-21T23:20:56.511Z,91.29
2018-01-21T23:26:59.954Z,91.28
2018-01-21T23:33:03.453Z,91.52
2018-01-21T23:39:06.909Z,92.35
2018-01-21T23:45:10.373Z,91.71
2018-01-21T23:51:14.429Z,91.44
2018-01-21T23:57:17.850Z,91.89
